Mountain View, CA (94043)

8:31 AM PST on February 13, 2016 (GMT -0800)
Mountain Shadows | | Change Station
CLOSE
Current Station
Personal Weather Station
Location: Mountain View, CA
Elevation: 70 ft
Nearby Weather Stations

Elev 70 ft 37.40 °N, 122.08 °W | Updated 171 days ago

Clear
Clear
61 °F
Feels Like 61 °F
N
7
Wind Variable Wind from NNW
Gusts mph

Today
High -- | Low -- °F
--% Chance of Precip.
Yesterday
High -- | Low -- °F
Precip. -- in
Pressure 30.28 in
Visibility 0.5 miles
Clouds
Dew Point 53 °F
Humidity 77%
Rainfall in
Snow Depth Not available.
7:00 AM 5:45 PM
Waxing Crescent, 32% visible
SPECI KNUQ 131625Z 06003KT 1/2SM FG VV002 12/11 A3028 RMK AO2 T01170106
Pressure 30.28 in
Visibility 0.5 miles
Clouds
Dew Point 53 °F
Humidity 77%
Rainfall in
Snow Depth Not available.
7:00 AM 5:45 PM
Waxing Crescent, 32% visible
SPECI KNUQ 131625Z 06003KT 1/2SM FG VV002 12/11 A3028 RMK AO2 T01170106

10-Day Weather Forecast

Almanac

Astronomy

Feb. 13, 2016 Rise Set
Actual Time
Civil Twilight
Nautical Twilight
Astronomical Twilight
Moon
Length of Visible Light
Length of Day
Tomorrow will be .
, % of the Moon is Illuminated

Today's Extremes

State Highs State Lows

Community

WunderPhotos

Upload Photos

1,892,600 photos uploaded!

WunderBlog® & News

Nearby

Air Quality

  Air Quality AQ Index Pollutant
Not available.

Snow Depth

Station Depth Elevation

Earthquake Activity

City Distance Mag. Time & Date
Minimum magnitude displayed is 2.5.

Coastal Water Temperatures

Place Temperature

Stations

Nearby Weather Stations

Station Location Temp. Windchill Dew Point Humidity Wind Precip. Elev Updated Type
                   

Watches & Warnings

There are currently no watches in effect.